Clarence, Iowa
Current Conditions -  °F | °C
As of 11:55 AM on Saturday 20 Dec 2014 (Local Time) from KMXO Reporting Station
Unknown Precip Unknown Precip  
Wind Chill: 22°   Ceiling: 1000
Heat Index: 30°   Visibility: 2.5mi
Dew Point: 30°   Wind: 9mph
Humidity: 100%   Direction: 150°SSE
Pressure: 30.21"   Gusts: NA
Location:  41.89°N, 91.06°W
Report Text: KMXO 201755Z AUTO 15008KT 2 1/2SM -UP OVC010 M01/M01 A3021 RMK AO2
Loading
Personal Weather Stations






























Interactive Weather Map New forecast layout! Learn more

10-Day Weather Forecast

Advertisements
Track Severe Weather on mobile